createdAt,value
2019-04-30T00:02:40.591Z,99.90
2019-04-30T00:05:17.154Z,99.90
2019-04-30T00:07:40.464Z,99.90
2019-04-30T00:10:09.090Z,99.90
2019-04-30T00:12:39.450Z,99.90
2019-04-30T00:15:10.965Z,99.90
2019-04-30T00:17:38.269Z,99.90
2019-04-30T00:20:06.896Z,99.90
2019-04-30T00:22:39.326Z,99.90
2019-04-30T00:25:08.112Z,99.90
2019-04-30T00:27:36.961Z,99.90
2019-04-30T00:30:08.894Z,99.90
2019-04-30T00:32:43.465Z,99.90
2019-04-30T00:35:11.751Z,99.90
2019-04-30T00:37:38.480Z,99.90
2019-04-30T00:40:07.167Z,99.90
2019-04-30T00:42:35.793Z,99.90
2019-04-30T00:45:09.919Z,99.90
2019-04-30T00:47:39.469Z,99.90
2019-04-30T00:50:09.404Z,99.90
2019-04-30T00:52:38.264Z,99.90
2019-04-30T00:55:09.179Z,99.90
2019-04-30T00:57:43.569Z,99.90
2019-04-30T01:00:11.901Z,99.90
2019-04-30T01:02:42.335Z,99.90
2019-04-30T01:05:12.955Z,99.90
2019-04-30T01:07:48.741Z,99.90
2019-04-30T01:10:12.798Z,99.90
2019-04-30T01:12:47.074Z,99.90
2019-04-30T01:15:14.412Z,99.90
2019-04-30T01:17:45.303Z,99.90
2019-04-30T01:20:13.471Z,99.90
2019-04-30T01:22:42.195Z,99.90
2019-04-30T01:25:13.374Z,99.90
2019-04-30T01:27:45.621Z,99.90
2019-04-30T01:30:13.360Z,99.90
2019-04-30T01:32:43.160Z,99.90
2019-04-30T01:35:11.855Z,99.90
2019-04-30T01:37:40.687Z,99.90
2019-04-30T01:40:13.546Z,99.90
2019-04-30T01:42:42.116Z,99.90
2019-04-30T01:45:10.263Z,99.90
2019-04-30T01:47:39.677Z,99.90
2019-04-30T01:50:09.222Z,99.90
2019-04-30T01:52:52.572Z,99.90
2019-04-30T01:55:24.085Z,99.90
2019-04-30T01:58:03.284Z,99.90
2019-04-30T02:00:33.719Z,99.90
2019-04-30T02:03:02.508Z,99.90
2019-04-30T02:05:30.967Z,99.90
2019-04-30T02:07:59.456Z,99.90
2019-04-30T02:10:28.533Z,99.90
2019-04-30T02:12:59.098Z,99.90
2019-04-30T02:15:29.239Z,99.90
2019-04-30T02:17:58.692Z,99.90
2019-04-30T02:20:28.694Z,99.90
2019-04-30T02:22:58.695Z,99.90
2019-04-30T02:25:29.391Z,99.90
2019-04-30T02:27:59.051Z,99.90
2019-04-30T02:30:30.519Z,99.90
2019-04-30T02:33:00.606Z,99.90
2019-04-30T02:35:33.363Z,99.90
2019-04-30T02:38:20.332Z,99.90
2019-04-30T02:40:50.053Z,99.90
2019-04-30T02:43:21.245Z,99.90
2019-04-30T02:45:51.345Z,99.90
2019-04-30T02:48:23.081Z,99.90
2019-04-30T02:50:53.542Z,99.90
2019-04-30T02:53:51.100Z,99.90
2019-04-30T02:56:21.739Z,99.90
2019-04-30T02:58:51.011Z,99.90
2019-04-30T03:01:20.429Z,99.90
2019-04-30T03:03:50.144Z,99.90
2019-04-30T03:06:20.338Z,99.90
2019-04-30T03:08:51.101Z,99.90
2019-04-30T03:11:20.633Z,99.90
2019-04-30T03:13:49.906Z,99.90
2019-04-30T03:16:20.800Z,99.90
2019-04-30T03:18:54.250Z,99.90
2019-04-30T03:21:40.910Z,99.90
2019-04-30T03:24:10.690Z,99.90
2019-04-30T03:26:40.181Z,99.90
2019-04-30T03:29:11.244Z,99.90
2019-04-30T03:31:44.311Z,99.90
2019-04-30T03:34:16.641Z,99.90
2019-04-30T03:36:40.572Z,99.90
2019-04-30T03:39:10.843Z,99.90
2019-04-30T03:41:41.309Z,99.90
2019-04-30T03:44:21.009Z,99.90
2019-04-30T03:46:40.468Z,99.90
2019-04-30T03:49:10.627Z,99.90
2019-04-30T03:51:40.445Z,99.90
2019-04-30T03:54:10.030Z,99.90
2019-04-30T03:56:39.786Z,99.90
2019-04-30T03:59:10.643Z,99.90
2019-04-30T04:01:50.371Z,99.90
2019-04-30T04:04:20.610Z,99.90
2019-04-30T04:06:50.728Z,99.90
2019-04-30T04:09:30.193Z,99.90
2019-04-30T04:12:00.394Z,99.90
2019-04-30T04:14:29.624Z,99.90
2019-04-30T04:17:00.105Z,99.90
2019-04-30T04:19:29.231Z,99.90
2019-04-30T04:21:59.973Z,99.90
2019-04-30T04:24:30.221Z,99.90
2019-04-30T04:26:59.685Z,99.90
2019-04-30T04:29:29.832Z,99.90
2019-04-30T04:32:00.830Z,99.90
2019-04-30T04:34:30.265Z,99.90
2019-04-30T04:37:00.070Z,99.90
2019-04-30T04:39:29.740Z,99.90
2019-04-30T04:41:59.964Z,99.90
2019-04-30T04:44:29.466Z,99.90
2019-04-30T04:47:00.141Z,99.90
2019-04-30T04:49:30.522Z,99.90
2019-04-30T04:51:59.215Z,99.90
2019-04-30T04:54:30.001Z,99.90
2019-04-30T04:57:13.222Z,99.90
2019-04-30T04:59:29.717Z,99.90
2019-04-30T05:02:00.266Z,99.90
2019-04-30T05:04:29.856Z,99.90
2019-04-30T05:07:00.077Z,99.90
2019-04-30T05:09:29.086Z,99.90
2019-04-30T05:11:58.573Z,99.90
2019-04-30T05:14:28.830Z,99.90
2019-04-30T05:16:58.681Z,99.90
2019-04-30T05:19:28.602Z,99.90
2019-04-30T05:21:59.551Z,99.90
2019-04-30T05:24:28.655Z,99.90
2019-04-30T05:26:58.685Z,99.90
2019-04-30T05:29:28.968Z,99.90
2019-04-30T05:31:58.562Z,99.90
2019-04-30T05:34:28.715Z,99.90
2019-04-30T05:36:58.479Z,99.90
2019-04-30T05:39:28.437Z,99.90
2019-04-30T05:41:58.820Z,99.90
2019-04-30T05:44:27.274Z,99.90
2019-04-30T05:46:55.726Z,99.90
2019-04-30T05:49:24.213Z,99.90
2019-04-30T05:51:55.712Z,99.90
2019-04-30T05:54:23.095Z,99.90
2019-04-30T05:56:51.543Z,99.90
2019-04-30T05:59:20.693Z,99.90
2019-04-30T06:01:50.778Z,99.90
2019-04-30T06:04:19.843Z,99.90
2019-04-30T06:06:49.012Z,99.90
2019-04-30T06:09:31.079Z,99.90
2019-04-30T06:12:11.420Z,99.90
2019-04-30T06:14:48.969Z,99.90
2019-04-30T06:17:16.194Z,99.90
2019-04-30T06:19:44.821Z,99.90
2019-04-30T06:22:13.418Z,99.90
2019-04-30T06:24:41.973Z,99.90
2019-04-30T06:27:11.016Z,99.90
2019-04-30T06:29:40.235Z,99.90
2019-04-30T06:32:08.938Z,99.90
2019-04-30T06:34:41.598Z,99.90
2019-04-30T06:37:09.647Z,99.90
2019-04-30T06:39:38.783Z,99.90
2019-04-30T06:42:12.249Z,99.90
2019-04-30T06:44:41.677Z,99.90
2019-04-30T06:47:09.238Z,99.90
2019-04-30T06:49:39.285Z,99.90
2019-04-30T06:52:19.550Z,99.90
2019-04-30T06:54:39.759Z,99.90
2019-04-30T06:57:09.762Z,99.90
2019-04-30T06:59:39.551Z,99.90
2019-04-30T07:02:09.106Z,99.90
2019-04-30T07:04:40.049Z,99.90
2019-04-30T07:07:09.132Z,99.90
2019-04-30T07:09:52.057Z,99.90
2019-04-30T07:12:30.585Z,99.90
2019-04-30T07:14:59.642Z,99.90
2019-04-30T07:17:29.220Z,99.90
2019-04-30T07:19:59.671Z,99.90
2019-04-30T07:22:39.026Z,99.90
2019-04-30T07:24:59.535Z,99.90
2019-04-30T07:27:30.194Z,99.90
2019-04-30T07:29:59.627Z,99.90
2019-04-30T07:32:28.876Z,99.90
2019-04-30T07:34:59.451Z,99.90
2019-04-30T07:37:29.276Z,99.90
2019-04-30T07:39:58.873Z,99.90
2019-04-30T07:42:29.391Z,99.90
2019-04-30T07:45:00.759Z,99.90
2019-04-30T07:47:29.703Z,99.90
2019-04-30T07:50:00.634Z,99.90
2019-04-30T07:52:33.307Z,99.90
2019-04-30T07:55:00.727Z,99.90
2019-04-30T07:57:32.256Z,99.90
2019-04-30T08:00:00.454Z,99.90
2019-04-30T08:02:36.382Z,99.90
2019-04-30T08:05:02.758Z,99.90
2019-04-30T08:07:31.381Z,99.90
2019-04-30T08:10:00.242Z,99.90
2019-04-30T08:12:31.961Z,99.90
2019-04-30T08:14:59.555Z,99.90
2019-04-30T08:17:28.946Z,99.90
2019-04-30T08:19:58.778Z,99.90
2019-04-30T08:22:29.610Z,99.90
2019-04-30T08:24:58.709Z,99.90
2019-04-30T08:27:29.469Z,99.90
2019-04-30T08:29:59.231Z,99.90
2019-04-30T08:32:28.957Z,99.90
2019-04-30T08:35:00.928Z,99.90
2019-04-30T08:37:28.852Z,99.90
2019-04-30T08:39:59.795Z,99.90
2019-04-30T08:42:31.715Z,99.90
2019-04-30T08:44:58.541Z,99.90
2019-04-30T08:47:29.108Z,99.90
2019-04-30T08:49:59.444Z,99.90
2019-04-30T08:52:27.856Z,99.90
2019-04-30T08:54:56.316Z,99.90
2019-04-30T08:57:24.882Z,99.90
2019-04-30T08:59:53.409Z,99.90
2019-04-30T09:02:21.962Z,99.90
2019-04-30T09:04:52.070Z,99.90
2019-04-30T09:07:20.919Z,99.90
2019-04-30T09:09:49.703Z,99.90
2019-04-30T09:12:19.578Z,99.90
2019-04-30T09:14:49.131Z,99.90
2019-04-30T09:17:19.662Z,99.90
2019-04-30T09:19:49.014Z,99.90
2019-04-30T09:22:19.468Z,99.90
2019-04-30T09:24:49.752Z,99.90
2019-04-30T09:27:19.581Z,99.90
2019-04-30T09:29:49.186Z,99.90
2019-04-30T09:32:19.306Z,99.90
2019-04-30T09:34:48.781Z,99.90
2019-04-30T09:37:18.745Z,99.90
2019-04-30T09:39:49.481Z,99.90
2019-04-30T09:42:19.632Z,99.90
2019-04-30T09:44:49.196Z,99.90
2019-04-30T09:47:20.120Z,99.90
2019-04-30T09:49:49.361Z,99.90
2019-04-30T09:52:19.511Z,99.90
2019-04-30T09:54:49.961Z,99.90
2019-04-30T09:57:19.369Z,99.90
2019-04-30T09:59:48.619Z,99.90
2019-04-30T10:02:19.172Z,99.90
2019-04-30T10:04:47.765Z,99.90
2019-04-30T10:07:16.779Z,99.90
2019-04-30T10:09:45.328Z,99.90
2019-04-30T10:12:17.035Z,99.90
2019-04-30T10:14:45.511Z,99.90
2019-04-30T10:17:31.918Z,99.90
2019-04-30T10:20:00.735Z,99.90
2019-04-30T10:22:29.670Z,99.30
2019-04-30T10:24:59.673Z,95.80
2019-04-30T10:27:29.361Z,93.50
2019-04-30T10:29:59.347Z,93.30
2019-04-30T10:32:29.963Z,88.60
2019-04-30T10:34:58.819Z,82.60
2019-04-30T10:37:28.727Z,75.70
2019-04-30T10:39:59.609Z,72.00
2019-04-30T10:42:28.881Z,68.30
2019-04-30T10:45:00.002Z,67.30
2019-04-30T10:47:29.359Z,65.60
2019-04-30T10:49:58.612Z,57.50
2019-04-30T10:52:29.315Z,52.70
2019-04-30T10:54:59.540Z,53.60
2019-04-30T10:57:28.502Z,52.20
2019-04-30T10:59:58.668Z,51.60
2019-04-30T11:02:28.751Z,48.10
2019-04-30T11:04:57.877Z,47.50
2019-04-30T11:07:28.682Z,47.80
2019-04-30T11:09:58.684Z,46.80
2019-04-30T11:12:29.181Z,43.50
2019-04-30T11:14:57.846Z,44.80
2019-04-30T11:17:26.606Z,43.00
2019-04-30T11:19:55.573Z,40.70
2019-04-30T11:22:24.310Z,41.40
2019-04-30T11:25:00.014Z,36.90
2019-04-30T11:27:23.491Z,36.70
2019-04-30T11:29:52.527Z,35.60
2019-04-30T11:32:23.056Z,35.80
2019-04-30T11:34:52.247Z,35.70
2019-04-30T11:37:20.858Z,32.80
2019-04-30T11:39:49.723Z,29.60
2019-04-30T11:42:18.207Z,29.40
2019-04-30T11:44:48.377Z,27.00
2019-04-30T11:47:22.697Z,26.30
2019-04-30T11:49:51.151Z,25.60
2019-04-30T11:52:20.342Z,24.40
2019-04-30T11:54:53.890Z,24.60
2019-04-30T11:57:19.266Z,24.00
2019-04-30T11:59:47.710Z,22.60
2019-04-30T12:02:19.088Z,22.10
2019-04-30T12:04:49.515Z,21.90
2019-04-30T12:07:22.726Z,21.90
2019-04-30T12:10:01.988Z,21.10
2019-04-30T12:12:30.534Z,20.70
2019-04-30T12:15:02.436Z,20.50
2019-04-30T12:17:29.191Z,20.30
2019-04-30T12:19:58.680Z,19.60
2019-04-30T12:22:27.262Z,20.40
2019-04-30T12:25:02.468Z,19.30
2019-04-30T12:27:25.911Z,20.70
2019-04-30T12:29:54.435Z,20.00
2019-04-30T12:32:22.906Z,19.60
2019-04-30T12:34:51.355Z,18.70
2019-04-30T12:37:19.827Z,18.20
2019-04-30T12:39:49.486Z,17.90
2019-04-30T12:42:18.908Z,17.80
2019-04-30T12:44:49.455Z,17.40
2019-04-30T12:47:20.062Z,17.90
2019-04-30T12:50:00.946Z,18.30
2019-04-30T12:52:33.543Z,17.30
2019-04-30T12:55:14.946Z,17.60
2019-04-30T12:57:56.166Z,18.70
2019-04-30T13:00:19.331Z,17.60
2019-04-30T13:02:47.739Z,17.60
2019-04-30T13:05:18.718Z,17.40
2019-04-30T13:07:49.440Z,18.80
2019-04-30T13:10:17.930Z,18.30
2019-04-30T13:12:47.200Z,18.60
2019-04-30T13:15:16.568Z,18.80
2019-04-30T13:17:45.118Z,19.50
2019-04-30T13:20:21.021Z,20.80
2019-04-30T13:22:44.380Z,20.90
2019-04-30T13:25:13.291Z,21.70
2019-04-30T13:27:43.479Z,22.30
2019-04-30T13:30:14.882Z,22.20
2019-04-30T13:32:51.435Z,22.80
2019-04-30T13:35:20.328Z,22.60
2019-04-30T13:37:50.495Z,22.90
2019-04-30T13:40:23.467Z,22.50
2019-04-30T13:42:56.167Z,22.30
2019-04-30T13:45:24.999Z,23.50
2019-04-30T13:47:53.526Z,22.50
2019-04-30T13:50:22.007Z,22.50
2019-04-30T13:52:50.461Z,22.10
2019-04-30T13:55:19.276Z,21.70
2019-04-30T13:57:47.871Z,21.30
2019-04-30T14:00:21.666Z,21.10
2019-04-30T14:03:04.032Z,20.60
2019-04-30T14:05:32.571Z,20.00
2019-04-30T14:08:20.723Z,20.10
2019-04-30T14:10:49.379Z,20.70
2019-04-30T14:13:18.134Z,21.10
2019-04-30T14:15:47.824Z,22.00
2019-04-30T14:18:27.962Z,22.60
2019-04-30T14:20:46.750Z,23.20
2019-04-30T14:23:15.645Z,23.30
2019-04-30T14:25:55.903Z,23.60
2019-04-30T14:28:14.691Z,23.40
2019-04-30T14:30:43.166Z,23.70
2019-04-30T14:33:23.257Z,25.70
2019-04-30T14:35:42.246Z,24.20
2019-04-30T14:38:10.763Z,24.50
2019-04-30T14:40:40.631Z,25.20
2019-04-30T14:43:27.680Z,26.00
2019-04-30T14:46:13.782Z,26.10
2019-04-30T14:48:51.284Z,26.80
2019-04-30T14:51:20.298Z,27.10
2019-04-30T14:53:58.768Z,26.60
2019-04-30T14:56:34.114Z,27.70
2019-04-30T14:59:06.678Z,27.20
2019-04-30T15:01:36.854Z,26.90
2019-04-30T15:04:05.307Z,26.60
2019-04-30T15:06:33.923Z,27.70
2019-04-30T15:09:02.447Z,26.80
2019-04-30T15:11:31.191Z,28.90
2019-04-30T15:13:59.712Z,27.70
2019-04-30T15:16:28.190Z,27.90
2019-04-30T15:18:56.986Z,29.00
2019-04-30T15:21:25.978Z,29.00
2019-04-30T15:24:09.421Z,28.50
2019-04-30T15:26:41.072Z,28.70
2019-04-30T15:29:12.714Z,29.30
2019-04-30T15:31:39.768Z,29.00
2019-04-30T15:34:12.979Z,28.70
2019-04-30T15:36:42.160Z,29.70
2019-04-30T15:39:13.088Z,29.50
2019-04-30T15:41:41.647Z,30.60
2019-04-30T15:44:10.170Z,29.40
2019-04-30T15:46:38.790Z,30.00
2019-04-30T15:49:07.947Z,30.10
2019-04-30T15:51:36.558Z,30.10
2019-04-30T15:54:05.628Z,30.00
2019-04-30T15:56:37.538Z,30.90
2019-04-30T15:59:22.826Z,31.60
2019-04-30T16:01:55.980Z,30.40
2019-04-30T16:04:42.102Z,30.40
2019-04-30T16:07:10.579Z,30.90
2019-04-30T16:09:43.922Z,30.00
2019-04-30T16:12:30.318Z,30.30
2019-04-30T16:14:58.771Z,31.50
2019-04-30T16:17:29.215Z,31.00
2019-04-30T16:19:57.564Z,31.30
2019-04-30T16:22:26.611Z,31.50
2019-04-30T16:24:55.079Z,31.90
2019-04-30T16:27:23.987Z,31.20
2019-04-30T16:29:52.776Z,31.20
2019-04-30T16:32:22.859Z,31.90
2019-04-30T16:34:51.306Z,32.80
2019-04-30T16:37:20.179Z,32.30
2019-04-30T16:39:48.982Z,32.70
2019-04-30T16:42:19.074Z,32.30
2019-04-30T16:44:47.672Z,32.00
2019-04-30T16:47:17.004Z,32.40
2019-04-30T16:49:46.078Z,32.30
2019-04-30T16:52:14.771Z,31.90
2019-04-30T16:54:43.223Z,32.30
2019-04-30T16:57:11.942Z,32.30
2019-04-30T16:59:42.086Z,32.20
2019-04-30T17:02:11.877Z,32.60
2019-04-30T17:04:58.415Z,32.70
2019-04-30T17:07:28.932Z,33.90
2019-04-30T17:10:09.062Z,33.50
2019-04-30T17:12:39.276Z,33.60
2019-04-30T17:15:15.887Z,33.80
2019-04-30T17:17:44.413Z,34.40
2019-04-30T17:20:13.774Z,34.40
2019-04-30T17:22:42.303Z,35.30
2019-04-30T17:25:11.082Z,35.30
2019-04-30T17:27:39.536Z,35.20
2019-04-30T17:30:11.035Z,35.40
2019-04-30T17:32:39.890Z,35.50
2019-04-30T17:35:09.092Z,36.10
2019-04-30T17:37:37.803Z,36.60
2019-04-30T17:40:09.468Z,36.60
2019-04-30T17:42:38.042Z,36.90
2019-04-30T17:45:09.488Z,37.00
2019-04-30T17:47:38.364Z,37.30
2019-04-30T17:50:08.998Z,37.60
2019-04-30T17:52:37.656Z,38.10
2019-04-30T17:55:09.713Z,38.30
2019-04-30T17:57:40.242Z,38.50
2019-04-30T18:00:18.762Z,38.90
2019-04-30T18:02:41.491Z,39.10
2019-04-30T18:05:11.384Z,39.50
2019-04-30T18:07:40.450Z,39.80
2019-04-30T18:10:11.002Z,40.10
2019-04-30T18:12:39.459Z,40.50
2019-04-30T18:15:12.659Z,40.80
2019-04-30T18:17:42.818Z,40.80
2019-04-30T18:20:15.778Z,41.40
2019-04-30T18:22:54.818Z,41.60
2019-04-30T18:25:40.063Z,41.60
2019-04-30T18:28:09.157Z,42.00
2019-04-30T18:30:39.272Z,42.20
2019-04-30T18:33:09.717Z,42.50
2019-04-30T18:35:38.894Z,42.90
2019-04-30T18:38:09.790Z,43.40
2019-04-30T18:40:39.801Z,43.40
2019-04-30T18:43:09.059Z,43.40
2019-04-30T18:45:39.501Z,43.60
2019-04-30T18:48:09.675Z,43.90
2019-04-30T18:50:38.033Z,44.00
2019-04-30T18:53:08.704Z,44.10
2019-04-30T18:55:37.246Z,44.60
2019-04-30T18:58:06.036Z,44.80
2019-04-30T19:00:43.139Z,45.10
2019-04-30T19:03:12.232Z,45.20
2019-04-30T19:05:42.423Z,45.80
2019-04-30T19:08:15.346Z,46.40
2019-04-30T19:10:55.151Z,46.90
2019-04-30T19:13:25.242Z,47.30
2019-04-30T19:16:21.847Z,47.80
2019-04-30T19:18:43.907Z,48.20
2019-04-30T19:21:12.560Z,48.30
2019-04-30T19:23:41.019Z,48.60
2019-04-30T19:26:09.502Z,48.70
2019-04-30T19:28:38.730Z,49.00
2019-04-30T19:31:09.194Z,49.30
2019-04-30T19:33:38.922Z,49.70
2019-04-30T19:36:09.655Z,49.80
2019-04-30T19:38:38.124Z,49.90
2019-04-30T19:41:06.756Z,50.40
2019-04-30T19:43:35.880Z,50.80
2019-04-30T19:46:04.419Z,51.20
2019-04-30T19:48:32.875Z,51.30
2019-04-30T19:51:01.647Z,52.10
2019-04-30T19:53:30.431Z,52.50
2019-04-30T19:55:59.059Z,52.80
2019-04-30T19:58:44.944Z,52.70
2019-04-30T20:00:59.511Z,53.80
2019-04-30T20:03:29.306Z,55.10
2019-04-30T20:05:58.600Z,56.20
2019-04-30T20:08:28.712Z,56.00
2019-04-30T20:10:59.178Z,56.20
2019-04-30T20:13:36.221Z,57.30
2019-04-30T20:15:59.371Z,59.00
2019-04-30T20:18:29.246Z,60.70
2019-04-30T20:21:01.141Z,62.50
2019-04-30T20:23:30.239Z,65.40
2019-04-30T20:25:58.691Z,66.20
2019-04-30T20:28:38.446Z,68.60
2019-04-30T20:30:57.350Z,70.10
2019-04-30T20:33:26.107Z,70.80
2019-04-30T20:35:54.560Z,73.00
2019-04-30T20:38:30.661Z,74.30
2019-04-30T20:41:02.780Z,77.70
2019-04-30T20:43:29.387Z,79.60
2019-04-30T20:45:58.657Z,82.90
2019-04-30T20:48:29.982Z,87.10
2019-04-30T20:51:01.084Z,90.90
2019-04-30T20:53:29.112Z,94.20
2019-04-30T20:55:59.328Z,95.20
2019-04-30T20:58:27.939Z,97.30
2019-04-30T21:01:04.020Z,99.70
2019-04-30T21:03:26.666Z,99.90
2019-04-30T21:05:55.127Z,99.90
2019-04-30T21:08:23.678Z,99.90
2019-04-30T21:10:52.135Z,99.90
2019-04-30T21:13:20.959Z,99.90
2019-04-30T21:15:49.715Z,99.90
2019-04-30T21:18:19.509Z,99.90
2019-04-30T21:20:49.727Z,99.90
2019-04-30T21:23:19.419Z,99.90
2019-04-30T21:25:48.894Z,99.90
2019-04-30T21:28:19.484Z,99.90
2019-04-30T21:30:47.631Z,99.90
2019-04-30T21:33:19.372Z,99.90
2019-04-30T21:35:52.566Z,99.90
2019-04-30T21:38:21.127Z,99.90
2019-04-30T21:40:49.591Z,99.90
2019-04-30T21:43:18.210Z,99.90
2019-04-30T21:45:46.759Z,99.90
2019-04-30T21:48:15.247Z,99.90
2019-04-30T21:50:43.703Z,99.90
2019-04-30T21:53:12.258Z,99.90
2019-04-30T21:55:40.715Z,99.90
2019-04-30T21:58:09.681Z,99.90
2019-04-30T22:00:43.303Z,99.90
2019-04-30T22:03:11.926Z,99.90
2019-04-30T22:05:40.682Z,99.90
2019-04-30T22:08:09.314Z,99.90
2019-04-30T22:10:38.254Z,99.90
2019-04-30T22:13:08.731Z,99.90
2019-04-30T22:15:37.143Z,99.90
2019-04-30T22:18:05.975Z,99.90
2019-04-30T22:20:34.458Z,99.90
2019-04-30T22:23:02.912Z,99.90
2019-04-30T22:25:31.707Z,99.90
2019-04-30T22:28:00.168Z,99.90
2019-04-30T22:30:28.714Z,99.90
2019-04-30T22:32:59.557Z,99.90
2019-04-30T22:35:29.303Z,99.90
2019-04-30T22:37:59.398Z,99.90
2019-04-30T22:40:31.304Z,99.90
2019-04-30T22:42:59.388Z,99.90
2019-04-30T22:45:32.270Z,99.90
2019-04-30T22:48:00.723Z,99.90
2019-04-30T22:50:29.202Z,99.90
2019-04-30T22:52:57.660Z,99.90
2019-04-30T22:55:26.491Z,99.90
2019-04-30T22:57:54.943Z,99.90
2019-04-30T23:00:25.135Z,99.90
2019-04-30T23:02:55.520Z,99.90
2019-04-30T23:05:24.302Z,99.90
2019-04-30T23:07:52.850Z,99.90
2019-04-30T23:10:21.678Z,99.90
2019-04-30T23:12:50.562Z,99.90
2019-04-30T23:15:19.887Z,99.90
2019-04-30T23:17:48.346Z,99.90
2019-04-30T23:20:17.339Z,99.90
2019-04-30T23:22:45.794Z,99.90
2019-04-30T23:25:14.346Z,99.90
2019-04-30T23:27:42.807Z,99.90
2019-04-30T23:30:12.597Z,99.90
2019-04-30T23:32:41.055Z,99.90
2019-04-30T23:35:09.771Z,99.90
2019-04-30T23:37:38.662Z,99.90
2019-04-30T23:40:23.995Z,99.90
2019-04-30T23:42:53.658Z,99.90
2019-04-30T23:45:22.484Z,99.90
2019-04-30T23:47:51.058Z,99.90
2019-04-30T23:50:19.648Z,99.90
2019-04-30T23:52:48.595Z,99.90
2019-04-30T23:55:17.215Z,99.90
2019-04-30T23:57:45.666Z,99.90
